메인 페이지
METAR-TAF:

METAR-TAF

공항 :

상파울루, 상파울루, 브라질

상파울루 콩고냐스 공항

위도: 23-37S, 경도: 046-39W, 고도: 803m

현재 날씨관측

예보는 58분 전, 18:00시(UTC)에 발표되었습니다.
북북서10kt서북서풍과 풍을 오가는
온도 29°C
습도 45%
기압 1019 hPa
시정 10km 이상
고도 4500ft 상공 구름 보통
고도 10000ft 상공 구름 보통

METAR: SBSP 161800Z 33010KT 300V010 9999 SCT045 SCT100 29/16 Q1019

시각: 16:58 (18:58 UTC)

예보

예보는 2 시간 38분 전, 16:20시(UTC)에 발표되었습니다.
예보 대상 시간: 16일 18시부터 17일 18시까지 (UTC)
서북서10kt
시정 10km 이상
고도 3500ft 상공 구름 보통
확률 40%
16일 19시부터 16일 22시까지 (UTC)
시정: 8000m
고도 2500ft 상공 구름 많음
고도 4000ft 상공 구름 조금, 적란운.
뇌우, 비
전환 중
16일 22시부터 16일 24시까지 (UTC)
북북서5kt
시정 10km 이상
1500m 미만 상공 구름 및 적란운 없음
전환 중
17일 02시부터 17일 04시까지 (UTC)
kt
전환 중
17일 08시부터 17일 10시까지 (UTC)
북북서5kt
전환 중
17일 14시부터 17일 16시까지 (UTC)
서북서10kt
고도 3500ft 상공 구름 보통

TAF: SBSP 161620Z 1618/1718 30010KT 9999 SCT035 FEW045TCUTN21/1709Z TX29/1717Z PROB40 1619/1622 8000 TSRA BKN025 FEW040CB BECMG 1622/1624 34005KT CAVOK BECMG 1702/1704 00000KT BECMG 1708/1710 34005KT BECMG 1714/1716 30010KT SCT035 RMK PGG

4,000개 이상의 공항 관측 자료 및 예보 (METAR 및 TAF 보고).

지도상에서 검색 가능한 기상관측소가 노란 점과 빨간 점으로 표시되어 있습니다.

기상관측소 명을 보려면 표시 위로 마우스를 이동하세요.

날씨 관측과 예보를 보려면 클릭하세요.

지도 변경 : 확대하려면 엑스 표시가 있는 녹색 버튼, 축소하려면 빼기 표시가 있는 녹색 버튼, 다음 페이지의 지도를 보려면 녹색 화살표를 클릭하세요.


METAR-TAF: